Time;durP1;ratioP1;P1;durP2;ratioP2;P2;SDS_P1;SDS_P2;PMS_P1;PMS_P2;Temp;Humidity;BMP_temperature;BMP_pressure;BME280_temperature;BME280_humidity;BME280_pressure;Samples;Min_cycle;Max_cycle;Signal;HPM_P1;HPM_P2
2021/04/07 00:07:19;;;;;;;5.37;3.53;;;;;;;;;;4315718;28;20091;-61
2021/04/07 00:09:45;;;;;;;4.65;3.92;;;;;;;;;;4232280;33;20128;-61
2021/04/07 00:12:11;;;;;;;4.20;3.47;;;;;;;;;;4207520;34;20195;-62
2021/04/07 00:14:37;;;;;;;5.15;3.40;;;;;;;;;;4218545;34;20205;-62
2021/04/07 00:17:03;;;;;;;5.37;3.70;;;;;;;;;;4218145;34;20148;-62
2021/04/07 00:19:28;;;;;;;4.28;3.40;;;;;;;;;;4218298;34;20124;-61
2021/04/07 00:21:54;;;;;;;3.80;3.40;;;;;;;;;;4218089;34;20129;-60
2021/04/07 00:24:20;;;;;;;3.90;3.50;;;;;;;;;;4218132;34;20106;-60
2021/04/07 00:26:46;;;;;;;3.65;3.35;;;;;;;;;;4218093;34;20224;-60
2021/04/07 00:29:12;;;;;;;4.12;3.72;;;;;;;;;;4218144;34;20090;-60
2021/04/07 00:31:38;;;;;;;5.15;3.10;;;;;;;;;;4218053;34;20628;-61
2021/04/07 00:34:03;;;;;;;6.05;3.35;;;;;;;;;;4218085;34;20118;-61
2021/04/07 00:36:29;;;;;;;3.70;3.40;;;;;;;;;;4218082;34;20213;-60
2021/04/07 00:38:55;;;;;;;4.85;3.42;;;;;;;;;;4218078;34;20113;-61
2021/04/07 00:41:21;;;;;;;3.90;3.42;;;;;;;;;;4217482;34;20125;-60
2021/04/07 00:43:47;;;;;;;5.32;3.40;;;;;;;;;;4220084;34;20120;-61
2021/04/07 00:46:13;;;;;;;4.43;3.53;;;;;;;;;;4220091;34;20097;-60
2021/04/07 00:48:39;;;;;;;6.50;3.40;;;;;;;;;;4220128;34;20129;-60
2021/04/07 00:51:05;;;;;;;6.82;4.55;;;;;;;;;;4219880;34;20124;-60
2021/04/07 00:53:30;;;;;;;3.95;3.33;;;;;;;;;;4220152;34;20140;-60
2021/04/07 00:55:56;;;;;;;3.72;3.33;;;;;;;;;;4219644;34;20235;-61
2021/04/07 00:58:22;;;;;;;3.80;3.40;;;;;;;;;;4195549;34;20193;-60
2021/04/07 01:00:48;;;;;;;3.60;3.30;;;;;;;;;;4219072;34;20106;-60
2021/04/07 01:03:14;;;;;;;4.25;3.40;;;;;;;;;;4220122;34;20098;-61
2021/04/07 01:05:40;;;;;;;4.47;2.80;;;;;;;;;;4206521;34;20124;-61
2021/04/07 01:08:06;;;;;;;3.72;3.17;;;;;;;;;;4207315;34;20105;-61
2021/04/07 01:10:32;;;;;;;5.15;3.08;;;;;;;;;;4219842;34;20133;-60
2021/04/07 01:12:58;;;;;;;3.42;3.10;;;;;;;;;;4219623;34;20139;-60
2021/04/07 01:15:24;;;;;;;3.40;3.10;;;;;;;;;;4219992;34;20529;-60
2021/04/07 01:17:50;;;;;;;3.95;3.10;;;;;;;;;;4220074;34;20232;-61
2021/04/07 01:20:17;;;;;;;3.85;3.47;;;;;;;;;;4206982;34;20118;-61
2021/04/07 01:22:48;;;;;;;3.78;3.22;;;;;;;;;;4219897;34;20135;-60
2021/04/07 01:25:14;;;;;;;3.70;3.25;;;;;;;;;;4219703;34;20110;-61
2021/04/07 01:27:40;;;;;;;3.95;3.08;;;;;;;;;;4219521;34;20559;-60
2021/04/07 01:30:07;;;;;;;3.62;3.03;;;;;;;;;;4219681;34;20125;-60
2021/04/07 01:32:36;;;;;;;7.37;3.28;;;;;;;;;;4219722;34;20126;-61
2021/04/07 01:35:02;;;;;;;3.30;3.00;;;;;;;;;;4219576;34;20205;-61
2021/04/07 01:37:27;;;;;;;4.45;3.55;;;;;;;;;;4206654;34;20541;-59
2021/04/07 01:39:53;;;;;;;5.43;3.47;;;;;;;;;;4219687;34;20131;-60
2021/04/07 01:42:19;;;;;;;3.53;2.95;;;;;;;;;;4219283;34;20451;-59
2021/04/07 01:44:45;;;;;;;3.08;2.75;;;;;;;;;;4219725;34;20106;-61
2021/04/07 01:47:11;;;;;;;5.97;2.45;;;;;;;;;;4206797;34;20121;-59
2021/04/07 01:49:37;;;;;;;3.83;2.72;;;;;;;;;;4207176;34;20126;-59
2021/04/07 01:52:03;;;;;;;3.42;3.03;;;;;;;;;;4219517;34;20488;-60
2021/04/07 01:54:29;;;;;;;4.15;2.58;;;;;;;;;;4219740;34;20123;-59
2021/04/07 01:56:56;;;;;;;3.40;2.80;;;;;;;;;;4206582;34;20160;-60
2021/04/07 01:59:28;;;;;;;3.10;2.53;;;;;;;;;;4219701;34;20093;-59
2021/04/07 02:01:54;;;;;;;3.35;2.67;;;;;;;;;;4219736;34;20188;-59
2021/04/07 02:04:20;;;;;;;2.58;2.37;;;;;;;;;;4219470;34;20185;-61
2021/04/07 02:06:47;;;;;;;2.85;2.58;;;;;;;;;;4219305;34;20109;-61
2021/04/07 02:09:13;;;;;;;2.35;2.15;;;;;;;;;;4219444;34;20106;-60
2021/04/07 02:11:40;;;;;;;6.55;2.40;;;;;;;;;;4219404;34;20101;-59
2021/04/07 02:14:07;;;;;;;3.62;2.75;;;;;;;;;;4220287;34;20121;-60
2021/04/07 02:16:33;;;;;;;4.25;3.00;;;;;;;;;;4221627;34;20209;-58
2021/04/07 02:18:59;;;;;;;4.50;2.33;;;;;;;;;;4219942;34;20106;-59
2021/04/07 02:21:25;;;;;;;3.80;2.70;;;;;;;;;;4220834;34;20144;-60
2021/04/07 02:23:51;;;;;;;3.53;2.95;;;;;;;;;;4219695;34;20627;-59
2021/04/07 02:26:16;;;;;;;5.05;3.28;;;;;;;;;;4218899;34;20113;-59
2021/04/07 02:28:42;;;;;;;3.45;2.95;;;;;;;;;;4219573;34;20493;-58
2021/04/07 02:31:08;;;;;;;4.65;3.40;;;;;;;;;;4219148;34;20101;-59
2021/04/07 02:33:35;;;;;;;3.97;3.30;;;;;;;;;;4219244;34;20098;-59
2021/04/07 02:36:01;;;;;;;4.18;3.10;;;;;;;;;;4206320;34;20112;-60
2021/04/07 02:38:27;;;;;;;3.58;3.20;;;;;;;;;;4219367;34;20102;-59
2021/04/07 02:40:53;;;;;;;3.87;3.00;;;;;;;;;;4219060;33;20098;-59
2021/04/07 02:43:19;;;;;;;3.05;2.75;;;;;;;;;;4219097;34;20193;-58
2021/04/07 02:45:45;;;;;;;6.45;2.45;;;;;;;;;;4219014;33;20117;-58
2021/04/07 02:48:11;;;;;;;3.33;2.40;;;;;;;;;;4206419;34;20105;-59
2021/04/07 02:50:37;;;;;;;3.28;2.97;;;;;;;;;;4218895;33;20125;-59
2021/04/07 02:53:03;;;;;;;3.80;2.85;;;;;;;;;;4219271;34;20133;-60
2021/04/07 02:55:29;;;;;;;3.08;2.72;;;;;;;;;;4206018;33;20235;-60
2021/04/07 02:57:54;;;;;;;4.35;2.90;;;;;;;;;;4205701;34;20148;-60
2021/04/07 03:00:21;;;;;;;5.78;3.42;;;;;;;;;;4219142;33;20114;-60
2021/04/07 03:02:47;;;;;;;3.17;2.90;;;;;;;;;;4219028;34;20128;-61
2021/04/07 03:05:13;;;;;;;4.30;3.22;;;;;;;;;;4217842;34;20755;-59
2021/04/07 03:07:42;;;;;;;5.40;3.55;;;;;;;;;;4219107;34;20522;-61
2021/04/07 03:10:09;;;;;;;5.45;3.72;;;;;;;;;;4218752;34;20133;-61
2021/04/07 03:12:36;;;;;;;4.22;3.20;;;;;;;;;;4218656;34;20514;-61
2021/04/07 03:15:03;;;;;;;3.47;2.80;;;;;;;;;;4218749;34;20244;-58
2021/04/07 03:17:29;;;;;;;7.25;3.45;;;;;;;;;;4218733;34;20101;-58
2021/04/07 03:19:55;;;;;;;3.28;2.97;;;;;;;;;;4218770;34;20141;-59
2021/04/07 03:22:20;;;;;;;5.68;4.22;;;;;;;;;;4205720;34;20147;-59
2021/04/07 03:24:46;;;;;;;4.22;3.33;;;;;;;;;;4218815;34;20104;-60
2021/04/07 03:27:12;;;;;;;3.03;2.50;;;;;;;;;;4218280;34;20166;-59
2021/04/07 03:29:38;;;;;;;4.07;2.78;;;;;;;;;;4218699;34;20208;-58
2021/04/07 03:32:04;;;;;;;3.80;3.00;;;;;;;;;;4218589;34;20529;-59
2021/04/07 03:34:30;;;;;;;3.72;3.28;;;;;;;;;;4218757;34;20185;-60
2021/04/07 03:36:56;;;;;;;5.22;3.37;;;;;;;;;;4218458;34;20461;-59
2021/04/07 03:39:22;;;;;;;5.75;4.40;;;;;;;;;;4205722;34;20285;-56
2021/04/07 03:41:48;;;;;;;5.78;4.60;;;;;;;;;;4218413;34;20140;-60
2021/04/07 03:44:14;;;;;;;6.05;4.78;;;;;;;;;;4205722;34;20628;-59
2021/04/07 03:46:39;;;;;;;4.20;3.72;;;;;;;;;;4218486;34;20129;-59
2021/04/07 03:49:05;;;;;;;4.25;3.85;;;;;;;;;;4218612;34;20113;-59
2021/04/07 03:51:31;;;;;;;5.25;3.45;;;;;;;;;;4218408;34;20109;-59
2021/04/07 03:53:57;;;;;;;3.62;3.15;;;;;;;;;;4218539;34;20089;-59
2021/04/07 03:56:23;;;;;;;4.20;3.50;;;;;;;;;;4218313;34;20129;-59
2021/04/07 03:58:49;;;;;;;3.97;3.35;;;;;;;;;;4218397;34;20193;-59
2021/04/07 04:01:15;;;;;;;4.20;3.47;;;;;;;;;;4218164;34;20152;-59
2021/04/07 04:03:41;;;;;;;4.00;3.60;;;;;;;;;;4218509;34;20125;-59
2021/04/07 04:06:07;;;;;;;4.30;3.70;;;;;;;;;;4217990;34;20113;-59
2021/04/07 04:08:33;;;;;;;4.30;3.15;;;;;;;;;;4218619;34;20218;-59
2021/04/07 04:10:59;;;;;;;5.28;3.58;;;;;;;;;;4218164;34;20176;-59
2021/04/07 04:13:25;;;;;;;5.53;3.85;;;;;;;;;;4218403;34;20199;-59
2021/04/07 04:15:51;;;;;;;5.20;4.32;;;;;;;;;;4218523;34;20177;-59
2021/04/07 04:18:17;;;;;;;5.35;4.40;;;;;;;;;;4220346;34;20109;-59
2021/04/07 04:20:43;;;;;;;4.47;3.42;;;;;;;;;;4220527;34;20201;-60
2021/04/07 04:23:09;;;;;;;5.37;3.67;;;;;;;;;;4220425;34;20116;-59
2021/04/07 04:25:35;;;;;;;5.40;3.58;;;;;;;;;;4220409;34;20153;-60
2021/04/07 04:28:01;;;;;;;3.95;2.80;;;;;;;;;;4219968;34;20124;-60
2021/04/07 04:30:27;;;;;;;4.35;3.00;;;;;;;;;;4220165;34;20553;-59
2021/04/07 04:32:53;;;;;;;4.95;3.30;;;;;;;;;;4220588;34;20560;-60
2021/04/07 04:35:18;;;;;;;4.50;2.90;;;;;;;;;;4220232;34;20112;-60
2021/04/07 04:37:45;;;;;;;6.28;2.90;;;;;;;;;;4220214;34;20212;-61
2021/04/07 04:40:12;;;;;;;5.68;3.05;;;;;;;;;;4219985;34;20141;-60
2021/04/07 04:42:38;;;;;;;4.05;2.60;;;;;;;;;;4220137;34;20119;-58
2021/04/07 04:45:05;;;;;;;6.95;2.80;;;;;;;;;;4207311;34;20521;-59
2021/04/07 04:47:31;;;;;;;3.53;2.95;;;;;;;;;;4207139;34;20094;-60
2021/04/07 04:49:57;;;;;;;3.20;2.70;;;;;;;;;;4220202;34;20121;-60
2021/04/07 04:52:22;;;;;;;3.85;3.20;;;;;;;;;;4219923;34;20220;-58
2021/04/07 04:54:48;;;;;;;5.53;3.03;;;;;;;;;;4220076;34;20522;-59
2021/04/07 04:57:15;;;;;;;3.20;2.58;;;;;;;;;;4219685;34;20118;-58
2021/04/07 04:59:41;;;;;;;4.37;2.70;;;;;;;;;;4220042;34;20148;-59
2021/04/07 05:02:07;;;;;;;3.87;3.00;;;;;;;;;;4219750;34;20458;-59
2021/04/07 05:04:32;;;;;;;3.90;2.87;;;;;;;;;;4220020;34;20184;-58
2021/04/07 05:06:58;;;;;;;3.67;2.62;;;;;;;;;;4219593;34;20117;-59
2021/04/07 05:09:24;;;;;;;6.25;3.22;;;;;;;;;;4219965;34;20521;-58
2021/04/07 05:11:51;;;;;;;5.57;3.20;;;;;;;;;;4219848;34;20094;-59
2021/04/07 05:14:17;;;;;;;4.18;2.75;;;;;;;;;;4219827;34;20109;-59
2021/04/07 05:16:43;;;;;;;3.20;2.75;;;;;;;;;;4219647;34;20105;-59
2021/04/07 05:19:09;;;;;;;6.45;3.08;;;;;;;;;;4220072;34;20442;-60
2021/04/07 05:21:35;;;;;;;3.78;2.80;;;;;;;;;;4219836;34;20120;-60
2021/04/07 05:24:01;;;;;;;4.35;2.62;;;;;;;;;;4219971;34;20454;-59
2021/04/07 05:26:27;;;;;;;4.78;3.33;;;;;;;;;;4219425;34;20530;-59
2021/04/07 05:28:53;;;;;;;4.43;3.03;;;;;;;;;;4219140;34;20107;-59
2021/04/07 05:31:19;;;;;;;5.85;3.92;;;;;;;;;;4219618;34;20211;-60
2021/04/07 05:33:46;;;;;;;4.80;3.60;;;;;;;;;;4219802;34;20470;-61
2021/04/07 05:36:15;;;;;;;4.40;3.62;;;;;;;;;;4219488;34;20499;-60
2021/04/07 05:38:41;;;;;;;6.60;3.50;;;;;;;;;;4206896;34;20105;-58
2021/04/07 05:41:07;;;;;;;4.85;3.83;;;;;;;;;;4219236;34;20220;-60
2021/04/07 05:43:37;;;;;;;10.52;3.45;;;;;;;;;;4219758;34;20117;-59
2021/04/07 05:46:03;;;;;;;4.78;3.42;;;;;;;;;;4219559;34;20457;-59
2021/04/07 05:48:30;;;;;;;3.75;3.35;;;;;;;;;;4219600;34;20106;-59
2021/04/07 05:50:56;;;;;;;5.72;3.83;;;;;;;;;;4219456;34;20690;-59
2021/04/07 05:53:22;;;;;;;4.20;3.40;;;;;;;;;;4219559;34;20102;-59
2021/04/07 05:55:52;;;;;;;7.78;3.40;;;;;;;;;;4218995;34;20525;-60
2021/04/07 05:58:18;;;;;;;7.03;3.70;;;;;;;;;;4219504;34;20129;-59
2021/04/07 06:00:44;;;;;;;5.25;3.20;;;;;;;;;;4219437;34;20633;-60
2021/04/07 06:03:11;;;;;;;5.57;3.37;;;;;;;;;;4219268;34;20450;-59
2021/04/07 06:05:44;;;;;;;4.07;3.42;;;;;;;;;;4219355;34;20577;-59
2021/04/07 06:08:10;;;;;;;4.82;3.03;;;;;;;;;;4219539;34;20176;-59
2021/04/07 06:10:38;;;;;;;3.87;3.12;;;;;;;;;;4219377;34;20132;-59
2021/04/07 06:13:04;;;;;;;5.55;3.42;;;;;;;;;;4219354;34;20129;-59
2021/04/07 06:15:30;;;;;;;5.18;3.42;;;;;;;;;;4206137;34;20111;-60
2021/04/07 06:17:59;;;;;;;4.05;3.33;;;;;;;;;;4219293;34;20113;-59
2021/04/07 06:20:26;;;;;;;4.03;3.45;;;;;;;;;;4219304;34;20453;-59
2021/04/07 06:22:53;;;;;;;4.18;3.78;;;;;;;;;;4219341;34;20541;-59
2021/04/07 06:25:18;;;;;;;4.55;3.85;;;;;;;;;;4219118;34;20621;-60
2021/04/07 06:27:49;;;;;;;4.10;3.05;;;;;;;;;;4206363;34;20132;-59
2021/04/07 06:30:15;;;;;;;5.00;3.60;;;;;;;;;;4219010;34;20112;-59
2021/04/07 06:32:41;;;;;;;5.53;3.85;;;;;;;;;;4219191;34;20092;-58
2021/04/07 06:35:08;;;;;;;5.28;3.40;;;;;;;;;;4219111;34;20125;-59
2021/04/07 06:37:34;;;;;;;3.95;3.37;;;;;;;;;;4219163;34;20092;-59
2021/04/07 06:39:59;;;;;;;10.40;4.57;;;;;;;;;;4218876;34;20121;-58
2021/04/07 06:42:26;;;;;;;5.80;3.42;;;;;;;;;;4218985;34;20137;-59
2021/04/07 06:44:52;;;;;;;8.73;3.47;;;;;;;;;;4218708;34;20120;-60
2021/04/07 06:47:18;;;;;;;11.68;3.40;;;;;;;;;;4219062;34;20212;-58
2021/04/07 06:49:43;;;;;;;4.15;3.22;;;;;;;;;;4219139;34;20213;-58
2021/04/07 06:52:13;;;;;;;4.30;3.40;;;;;;;;;;4218956;34;20157;-59
2021/04/07 06:54:39;;;;;;;8.00;3.42;;;;;;;;;;4206261;34;20552;-60
2021/04/07 06:57:05;;;;;;;8.93;3.92;;;;;;;;;;4219003;34;20144;-59
2021/04/07 06:59:31;;;;;;;8.73;3.65;;;;;;;;;;4218690;34;20148;-59
2021/04/07 07:01:57;;;;;;;10.43;4.10;;;;;;;;;;4218749;34;20213;-59
2021/04/07 07:04:23;;;;;;;5.22;3.35;;;;;;;;;;4218809;34;20220;-59
2021/04/07 07:06:53;;;;;;;7.47;3.75;;;;;;;;;;4218625;34;20156;-58
2021/04/07 07:09:19;;;;;;;7.30;3.97;;;;;;;;;;4218824;34;20577;-60
2021/04/07 07:11:49;;;;;;;8.98;4.40;;;;;;;;;;4218794;34;20110;-57
2021/04/07 07:14:16;;;;;;;10.00;5.35;;;;;;;;;;4218646;34;20117;-59
2021/04/07 07:16:49;;;;;;;15.55;4.75;;;;;;;;;;4218774;34;20124;-58
2021/04/07 07:19:24;;;;;;;13.38;5.00;;;;;;;;;;4218855;34;20113;-58
2021/04/07 07:21:57;;;;;;;12.30;4.45;;;;;;;;;;4219044;34;20113;-58
2021/04/07 07:24:31;;;;;;;13.27;4.75;;;;;;;;;;4218841;34;20101;-58
2021/04/07 07:26:58;;;;;;;9.10;4.22;;;;;;;;;;4218859;34;20105;-57
2021/04/07 07:29:32;;;;;;;23.73;5.47;;;;;;;;;;4218551;34;20215;-58
2021/04/07 07:32:02;;;;;;;8.30;4.70;;;;;;;;;;4218591;34;20529;-56
2021/04/07 07:34:28;;;;;;;10.75;5.15;;;;;;;;;;4218772;34;20105;-58
2021/04/07 07:36:54;;;;;;;17.15;5.32;;;;;;;;;;4218422;34;20109;-58
2021/04/07 07:39:30;;;;;;;10.95;5.57;;;;;;;;;;4218575;34;20172;-58
2021/04/07 07:42:07;;;;;;;14.57;7.18;;;;;;;;;;4218675;34;20529;-59
2021/04/07 07:44:34;;;;;;;10.82;6.28;;;;;;;;;;4205452;34;20368;-59
2021/04/07 07:47:04;;;;;;;10.60;6.40;;;;;;;;;;4218690;34;20113;-59
2021/04/07 07:49:30;;;;;;;13.68;5.82;;;;;;;;;;4218549;34;20101;-60
2021/04/07 07:51:57;;;;;;;18.48;7.12;;;;;;;;;;4217983;34;20173;-59
2021/04/07 07:54:23;;;;;;;17.30;6.45;;;;;;;;;;4218460;34;20114;-60
2021/04/07 07:56:50;;;;;;;12.90;5.50;;;;;;;;;;4205656;34;20435;-59
2021/04/07 07:59:26;;;;;;;15.80;6.80;;;;;;;;;;4218216;34;20121;-59
2021/04/07 08:01:52;;;;;;;15.82;6.55;;;;;;;;;;4218562;34;20501;-59
2021/04/07 08:04:18;;;;;;;15.13;6.97;;;;;;;;;;4218341;34;20125;-59
2021/04/07 08:06:45;;;;;;;10.77;6.72;;;;;;;;;;4218373;34;20113;-56
2021/04/07 08:09:11;;;;;;;20.92;7.50;;;;;;;;;;4218342;34;20113;-61
2021/04/07 08:11:37;;;;;;;19.02;8.15;;;;;;;;;;4218187;34;20120;-59
2021/04/07 08:14:03;;;;;;;19.87;9.18;;;;;;;;;;4218265;34;20665;-57
2021/04/07 08:16:31;;;;;;;10.43;6.80;;;;;;;;;;4193354;34;20112;-58
2021/04/07 08:18:57;;;;;;;14.32;7.40;;;;;;;;;;4205487;34;20121;-57
2021/04/07 08:21:23;;;;;;;15.02;7.43;;;;;;;;;;4205106;34;20188;-59
2021/04/07 08:23:57;;;;;;;14.00;7.80;;;;;;;;;;4194170;34;20094;-57
2021/04/07 08:26:25;;;;;;;10.55;6.68;;;;;;;;;;4218065;34;20209;-57
2021/04/07 08:28:51;;;;;;;15.80;8.82;;;;;;;;;;4205303;34;20102;-58
2021/04/07 08:31:17;;;;;;;14.45;7.80;;;;;;;;;;4204785;34;20125;-57
2021/04/07 08:33:48;;;;;;;17.12;8.60;;;;;;;;;;4205447;34;20110;-59
2021/04/07 08:36:23;;;;;;;13.35;7.30;;;;;;;;;;4205129;34;20113;-58
2021/04/07 08:39:03;;;;;;;16.35;7.37;;;;;;;;;;4217960;34;20536;-58
2021/04/07 08:41:29;;;;;;;16.77;7.53;;;;;;;;;;4218153;34;20236;-59
2021/04/07 08:43:55;;;;;;;16.45;6.85;;;;;;;;;;4205091;34;20144;-57
2021/04/07 08:46:27;;;;;;;16.33;6.62;;;;;;;;;;4217384;34;20108;-57
2021/04/07 08:48:53;;;;;;;13.20;6.12;;;;;;;;;;4218266;34;20102;-59
2021/04/07 08:51:21;;;;;;;8.63;5.28;;;;;;;;;;4217754;34;20482;-60
2021/04/07 08:53:50;;;;;;;10.82;5.28;;;;;;;;;;4217869;34;20112;-59
2021/04/07 08:56:36;;;;;;;9.65;5.18;;;;;;;;;;4217740;34;20109;-58
2021/04/07 08:59:03;;;;;;;10.05;5.35;;;;;;;;;;4217601;34;20124;-59
2021/04/07 09:01:32;;;;;;;6.30;4.90;;;;;;;;;;4217302;34;20246;-59
2021/04/07 09:04:12;;;;;;;13.02;5.32;;;;;;;;;;4218892;34;20142;-61
2021/04/07 09:06:58;;;;;;;7.78;5.12;;;;;;;;;;4219731;34;20113;-59
2021/04/07 09:09:26;;;;;;;8.75;4.70;;;;;;;;;;4219883;34;20097;-58
2021/04/07 09:11:52;;;;;;;11.75;6.07;;;;;;;;;;4219679;34;20536;-58
2021/04/07 09:14:19;;;;;;;14.55;5.07;;;;;;;;;;4219999;34;20109;-60
2021/04/07 09:16:45;;;;;;;10.57;5.18;;;;;;;;;;4219689;34;20226;-59
2021/04/07 09:19:24;;;;;;;10.55;5.32;;;;;;;;;;4219725;34;20132;-59
2021/04/07 09:22:00;;;;;;;12.13;5.45;;;;;;;;;;4219612;34;20141;-58
2021/04/07 09:24:28;;;;;;;10.15;5.75;;;;;;;;;;4219877;34;20544;-59
2021/04/07 09:26:54;;;;;;;9.15;4.82;;;;;;;;;;4219609;34;20140;-60
2021/04/07 09:29:21;;;;;;;6.25;4.65;;;;;;;;;;4219707;34;20217;-60
2021/04/07 09:31:46;;;;;;;14.13;5.68;;;;;;;;;;4206632;34;20124;-61
2021/04/07 09:34:13;;;;;;;6.47;5.50;;;;;;;;;;4195347;34;20549;-61
2021/04/07 09:36:41;;;;;;;12.07;5.90;;;;;;;;;;4215566;34;20268;-59
2021/04/07 09:39:12;;;;;;;18.27;6.70;;;;;;;;;;4219027;34;20213;-59
2021/04/07 09:41:41;;;;;;;11.93;5.78;;;;;;;;;;4217024;33;20190;-59
2021/04/07 09:44:08;;;;;;;14.13;6.22;;;;;;;;;;4219497;34;20128;-59
2021/04/07 09:46:35;;;;;;;7.68;5.28;;;;;;;;;;4219620;34;20098;-59
2021/04/07 09:49:11;;;;;;;11.02;5.47;;;;;;;;;;4219461;34;20125;-59
2021/04/07 09:51:38;;;;;;;9.80;6.03;;;;;;;;;;4219503;33;20164;-59
2021/04/07 09:54:26;;;;;;;9.27;5.60;;;;;;;;;;4219414;34;20132;-58
2021/04/07 09:57:00;;;;;;;10.38;5.28;;;;;;;;;;4219015;33;20551;-59
2021/04/07 09:59:48;;;;;;;10.40;6.07;;;;;;;;;;4219443;34;20408;-60
2021/04/07 10:02:24;;;;;;;16.55;7.60;;;;;;;;;;4219366;33;20121;-59
2021/04/07 10:04:51;;;;;;;10.45;5.40;;;;;;;;;;4219397;34;20105;-59
2021/04/07 10:07:21;;;;;;;20.75;6.07;;;;;;;;;;4219194;34;20105;-58
2021/04/07 10:09:51;;;;;;;11.80;5.85;;;;;;;;;;4219435;34;20125;-61
2021/04/07 10:12:20;;;;;;;14.65;5.97;;;;;;;;;;4218398;33;20129;-60
2021/04/07 10:14:50;;;;;;;18.33;6.10;;;;;;;;;;4218849;34;20154;-62
2021/04/07 10:17:18;;;;;;;12.50;5.75;;;;;;;;;;4219035;33;20101;-62
2021/04/07 10:19:44;;;;;;;10.38;5.43;;;;;;;;;;4219261;34;20556;-62
2021/04/07 10:22:18;;;;;;;19.60;5.72;;;;;;;;;;4219109;33;20121;-61
2021/04/07 10:24:47;;;;;;;20.85;6.57;;;;;;;;;;4207265;34;20117;-60
2021/04/07 10:27:20;;;;;;;14.20;6.32;;;;;;;;;;4219107;33;20529;-61
2021/04/07 10:29:47;;;;;;;19.92;6.97;;;;;;;;;;4219247;34;20129;-60
2021/04/07 10:32:17;;;;;;;16.25;6.03;;;;;;;;;;4206205;34;20163;-60
2021/04/07 10:34:44;;;;;;;19.25;6.60;;;;;;;;;;4206641;34;20481;-60
2021/04/07 10:37:10;;;;;;;11.55;6.05;;;;;;;;;;4218036;33;20575;-61
2021/04/07 10:39:40;;;;;;;19.67;6.62;;;;;;;;;;4219103;34;20443;-61
2021/04/07 10:42:24;;;;;;;24.08;6.90;;;;;;;;;;4218961;33;20442;-61
2021/04/07 10:45:01;;;;;;;23.27;6.40;;;;;;;;;;4219156;34;20108;-61
2021/04/07 10:47:35;;;;;;;11.20;6.90;;;;;;;;;;4206150;34;20109;-61
2021/04/07 10:50:01;;;;;;;21.85;6.70;;;;;;;;;;4219027;34;20118;-62
2021/04/07 10:52:34;;;;;;;14.90;6.07;;;;;;;;;;4218959;33;20109;-62
2021/04/07 10:55:01;;;;;;;16.75;6.70;;;;;;;;;;4206125;34;20117;-62
2021/04/07 10:57:34;;;;;;;13.57;5.93;;;;;;;;;;4205808;34;20089;-62
2021/04/07 11:00:00;;;;;;;13.82;6.37;;;;;;;;;;4219113;34;20145;-62
2021/04/07 11:02:26;;;;;;;11.50;5.65;;;;;;;;;;4206165;34;20129;-61
2021/04/07 11:04:52;;;;;;;18.37;6.15;;;;;;;;;;4206121;34;20127;-63
2021/04/07 11:07:18;;;;;;;19.92;6.55;;;;;;;;;;4218701;34;20419;-62
2021/04/07 11:09:47;;;;;;;15.50;7.03;;;;;;;;;;4218916;34;20121;-62
2021/04/07 11:12:15;;;;;;;15.27;6.00;;;;;;;;;;4205779;34;20133;-62
2021/04/07 11:14:42;;;;;;;14.75;5.80;;;;;;;;;;4194738;34;20616;-61
2021/04/07 11:17:14;;;;;;;15.68;5.72;;;;;;;;;;4205798;34;20164;-62
2021/04/07 11:19:40;;;;;;;12.93;5.97;;;;;;;;;;4218815;34;20461;-59
2021/04/07 11:22:06;;;;;;;23.70;6.80;;;;;;;;;;4218586;34;20121;-60
2021/04/07 11:24:32;;;;;;;13.30;6.80;;;;;;;;;;4219095;34;20117;-61
2021/04/07 11:26:58;;;;;;;18.23;5.72;;;;;;;;;;4217789;34;20125;-62
2021/04/07 11:29:24;;;;;;;16.67;5.47;;;;;;;;;;4205896;34;20525;-61
2021/04/07 11:31:54;;;;;;;17.25;4.93;;;;;;;;;;4218643;34;20141;-61
2021/04/07 11:34:27;;;;;;;18.08;6.35;;;;;;;;;;4206542;34;20132;-61
2021/04/07 11:42:02;;;;;;;14.07;4.20;;;;;;;;;;4218586;34;20166;-60
2021/04/07 11:44:30;;;;;;;18.05;4.80;;;;;;;;;;4196909;34;20197;-60
2021/04/07 11:46:57;;;;;;;26.80;5.22;;;;;;;;;;4205895;34;20120;-60
2021/04/07 11:49:23;;;;;;;16.50;5.40;;;;;;;;;;4218658;34;20535;-60
2021/04/07 11:51:49;;;;;;;13.30;6.53;;;;;;;;;;4218860;34;20104;-60
2021/04/07 11:54:15;;;;;;;6.65;5.18;;;;;;;;;;4218522;34;20098;-60
2021/04/07 11:56:45;;;;;;;16.90;5.57;;;;;;;;;;4218408;34;20533;-61
2021/04/07 11:59:18;;;;;;;15.07;6.10;;;;;;;;;;4218243;34;20133;-60
2021/04/07 12:01:45;;;;;;;14.25;5.90;;;;;;;;;;4218710;34;20189;-60
2021/04/07 12:04:11;;;;;;;12.65;5.85;;;;;;;;;;4218513;34;20140;-61
2021/04/07 12:06:37;;;;;;;10.27;5.80;;;;;;;;;;4218210;34;20469;-60
2021/04/07 12:09:04;;;;;;;13.40;5.68;;;;;;;;;;4218545;34;20616;-60
2021/04/07 12:11:31;;;;;;;16.98;6.28;;;;;;;;;;4205434;34;20189;-60
2021/04/07 12:13:57;;;;;;;12.40;6.03;;;;;;;;;;4218347;34;20128;-61
2021/04/07 12:16:23;;;;;;;11.52;5.93;;;;;;;;;;4218525;34;20525;-60
2021/04/07 12:18:49;;;;;;;17.17;6.20;;;;;;;;;;4218218;34;20228;-60
2021/04/07 12:21:16;;;;;;;20.17;6.95;;;;;;;;;;4218179;34;20160;-60
2021/04/07 12:23:42;;;;;;;14.20;6.43;;;;;;;;;;4218284;34;20132;-61
2021/04/07 12:26:09;;;;;;;15.70;6.53;;;;;;;;;;4218128;34;20533;-60
2021/04/07 12:28:35;;;;;;;21.62;6.53;;;;;;;;;;4218136;34;20465;-60
2021/04/07 12:31:01;;;;;;;27.80;7.03;;;;;;;;;;4205148;34;20194;-60
2021/04/07 12:33:27;;;;;;;14.98;5.55;;;;;;;;;;4218168;34;20217;-61
2021/04/07 12:35:53;;;;;;;20.15;5.40;;;;;;;;;;4217994;34;20604;-60
2021/04/07 12:38:19;;;;;;;18.98;5.40;;;;;;;;;;4206351;34;20104;-60
2021/04/07 12:40:49;;;;;;;19.75;5.55;;;;;;;;;;4220232;34;20097;-60
2021/04/07 12:43:15;;;;;;;12.00;5.10;;;;;;;;;;4220213;34;20117;-60
2021/04/07 12:45:41;;;;;;;15.65;4.60;;;;;;;;;;4220138;34;20453;-61
2021/04/07 12:48:10;;;;;;;12.52;4.50;;;;;;;;;;4219994;34;20121;-60
2021/04/07 12:50:36;;;;;;;11.60;4.57;;;;;;;;;;4220288;34;20101;-61
2021/04/07 12:53:03;;;;;;;18.37;4.80;;;;;;;;;;4220120;34;20212;-61
2021/04/07 12:55:33;;;;;;;5.97;4.22;;;;;;;;;;4220050;34;20108;-60
2021/04/07 12:57:59;;;;;;;14.52;4.80;;;;;;;;;;4207447;34;20117;-61
2021/04/07 13:00:26;;;;;;;10.63;5.50;;;;;;;;;;4220146;34;20090;-59
2021/04/07 13:02:52;;;;;;;19.67;5.53;;;;;;;;;;4207290;34;20461;-61
2021/04/07 13:05:18;;;;;;;18.75;5.40;;;;;;;;;;4220047;34;20224;-59
2021/04/07 13:07:45;;;;;;;19.42;4.97;;;;;;;;;;4219816;34;20117;-61
2021/04/07 13:10:12;;;;;;;16.90;5.05;;;;;;;;;;4218802;33;20137;-62
2021/04/07 13:12:37;;;;;;;14.60;6.65;;;;;;;;;;4219796;34;20121;-62
2021/04/07 13:15:04;;;;;;;14.80;5.50;;;;;;;;;;4220096;34;20101;-62
2021/04/07 13:17:30;;;;;;;15.70;5.68;;;;;;;;;;4219829;33;20525;-61
2021/04/07 13:19:57;;;;;;;15.38;5.82;;;;;;;;;;4219341;34;20122;-61
2021/04/07 13:22:23;;;;;;;12.50;5.03;;;;;;;;;;4220111;33;20501;-61
2021/04/07 13:24:49;;;;;;;16.62;5.37;;;;;;;;;;4220061;34;20181;-61
2021/04/07 13:27:15;;;;;;;12.95;5.37;;;;;;;;;;4219632;33;20101;-61
2021/04/07 13:29:42;;;;;;;16.60;5.57;;;;;;;;;;4220052;34;20089;-60
2021/04/07 13:32:09;;;;;;;15.30;5.32;;;;;;;;;;4219630;33;20093;-59
2021/04/07 13:39:58;;;;;;;15.57;4.80;;;;;;;;;;4219812;34;20117;-60
2021/04/07 13:45:08;;;;;;;10.70;5.35;;;;;;;;;;4219605;33;20129;-60
2021/04/07 13:47:35;;;;;;;17.70;5.25;;;;;;;;;;4219542;34;20106;-60
2021/04/07 13:50:01;;;;;;;14.55;5.82;;;;;;;;;;4219164;34;20599;-60
2021/04/07 13:52:27;;;;;;;17.33;5.12;;;;;;;;;;4219490;33;20094;-61
2021/04/07 13:54:55;;;;;;;20.45;5.22;;;;;;;;;;4219619;34;20108;-63
2021/04/07 13:57:28;;;;;;;16.02;4.30;;;;;;;;;;4219557;33;20427;-64
2021/04/07 13:59:57;;;;;;;17.58;4.80;;;;;;;;;;4219571;34;20117;-61
2021/04/07 14:02:31;;;;;;;16.48;5.28;;;;;;;;;;4219373;33;20513;-62
2021/04/07 14:04:58;;;;;;;16.67;5.68;;;;;;;;;;4205595;34;20507;-62
2021/04/07 14:07:24;;;;;;;18.45;5.32;;;;;;;;;;4205652;34;20178;-62
2021/04/07 14:09:50;;;;;;;16.20;4.93;;;;;;;;;;4205574;34;20101;-62
2021/04/07 14:12:21;;;;;;;10.38;4.32;;;;;;;;;;4205388;34;20208;-61
2021/04/07 14:14:47;;;;;;;16.08;5.32;;;;;;;;;;4205770;34;20442;-61
2021/04/07 14:17:13;;;;;;;16.73;5.10;;;;;;;;;;4205788;34;20122;-60
2021/04/07 14:19:39;;;;;;;15.82;5.12;;;;;;;;;;4205484;34;20295;-60
2021/04/07 14:22:05;;;;;;;13.07;4.87;;;;;;;;;;4205468;34;20117;-61
2021/04/07 14:24:31;;;;;;;13.98;5.03;;;;;;;;;;4205530;34;20197;-62
2021/04/07 14:27:02;;;;;;;16.50;5.43;;;;;;;;;;4205301;34;20098;-62
2021/04/07 14:29:28;;;;;;;9.90;5.15;;;;;;;;;;4205320;34;20125;-61
2021/04/07 14:31:54;;;;;;;21.90;4.62;;;;;;;;;;4205317;34;20127;-62
2021/04/07 14:34:20;;;;;;;15.57;4.82;;;;;;;;;;4205262;34;20181;-61
2021/04/07 14:36:46;;;;;;;16.15;6.12;;;;;;;;;;4205334;34;20200;-61
2021/04/07 14:39:12;;;;;;;13.70;7.90;;;;;;;;;;4205201;34;20113;-61
2021/04/07 14:41:38;;;;;;;16.70;8.00;;;;;;;;;;4205233;34;20133;-64
2021/04/07 14:44:05;;;;;;;27.35;12.40;;;;;;;;;;4205227;34;20087;-63
2021/04/07 14:46:31;;;;;;;22.70;11.68;;;;;;;;;;4205162;34;20097;-61
2021/04/07 14:48:58;;;;;;;16.90;9.70;;;;;;;;;;4192275;34;20112;-62
2021/04/07 14:51:27;;;;;;;16.00;8.10;;;;;;;;;;4205156;34;20171;-60
2021/04/07 14:54:31;;;;;;;21.33;7.50;;;;;;;;;;4192522;34;20094;-60
2021/04/07 14:56:48;;;;;;;26.00;10.18;;;;;;;;;;4203247;34;20125;-60